Aérodrome :
LOGIN :

S'inscrire | Disclaimer

   EN    FR    IT 

 










Légende :    VFR   VFR Marginal   IFR   IFR Intensif   IFR Très Intensif
Visi : 
Plafond : 
>= 8 km
>= 3000ft
5 à 8 km
1000 à 3000 ft
1500m à 5 km
500 à 1000 ft
800 à 1500m
200 à 500 ft
< 800m
< 200 ft
Symboles :   Orages  Brouillard  Fortes neiges  Fortes précipitations  Vent > 20 kt
SIGMETs :   Divers  Orages  Givrage  Turbulence  Onde Orograph.  Cendres Volcan.







- Altitude de l'aérodrome : 408 ft
- Code IATA : FKB


EDSB - Karlsruhe Baden Baden

DERNIER METAR :
  • 280720Z 20013KT 9999 BKN036 05/02 Q1000

METARs EXPIRÉS :
  • 280650Z 19013KT 9999 FEW035 BKN042 05/02 Q1000
  • 280620Z 20010KT 9999 SCT036 BKN045 04/02 Q0999
  • 280550Z 20016KT 9999 FEW022 SCT048 05/01 Q0999
  • 280520Z 19019KT 9999 FEW028 SCT048 05/02 Q0999
  • 280450Z 19017KT 9999 FEW022 BKN046 05/02 Q0999

TAF TAF EDSB
Valide du 28 à 06h jusqu'au 01 à 06h UTC


280500Z 2806/0106 20013KT 9999 BKN040
BECMG 2806/2810 21015G25KT
TEMPO 2813/2822 SHRA BKN020TCU
PROB30
TEMPO 2815/2819 21020G30KT TSRA BKN015CB
TEMPO 0102/0106 SHRA BKN015TCU
Pas de NOTAMs connus pour ce terrain.
4 SIGMETs publiés pour la FIR Langen (EDGG) :
 
Annulation du SIGMET 2 
EDGG SIGMET 6 VALID 280638/280700 EDZF
EDGG LANGEN FIR CNL SIGMET 2 280400/280700=
Turbulence forte
EDGG SIGMET 5 VALID 280636/281000 EDZF
EDGG LANGEN FIR SEV TURB FCST E OF LINE N5200 E00905 - N4730 E00740 FL140/245 MOV E WKN=
Annulation du SIGMET 3 
EDGG SIGMET 4 VALID 280700/281000 EDZF
EDGG LANGEN FIR CNL SIGMET 3 280700/281000=
SIGMET 3  ANNULÉ :
Turbulence forte
EDGG SIGMET 3 VALID 280700/281000 EDZF
EDGG LANGEN FIR SEV TURB FCST E OF LINE N5200 E00905 - N4730 E00740 FL180/245 MOV E WKN=



MET'MAP, la Météo Aéronautique d'un coup d'oeil ! - Copyright ORBIFLY Décembre 2007 - Disclaimer

ORBIFLY MET'MAP TEAM :

Programmation & Développement : Alexandra Zaïnal
Conception & Développement : Baudouin d'Aumeries
Co-Programmation & Développement : Marc-Olivier Méhu
Soutien technique & logistique : Manuel Goepfert

Contact : metmap@orbifly.com




SOURCES & CREDITS :

   NOAA